Time;durP1;ratioP1;P1;durP2;ratioP2;P2;SDS_P1;SDS_P2;PMS_P1;PMS_P2;Temp;Humidity;BMP_temperature;BMP_pressure;BME280_temperature;BME280_humidity;BME280_pressure;Samples;Min_cycle;Max_cycle;Signal;HPM_P1;HPM_P2
2021/01/22 00:00:22;;;;;;;0.93;0.30;;;;;;;10.45;63.81;96818.22;4977799;28;20134;-69
2021/01/22 00:02:47;;;;;;;0.30;0.20;;;;;;;10.53;64.16;96809.66;4976665;28;20105;-71
2021/01/22 00:05:13;;;;;;;0.45;0.32;;;;;;;10.51;64.45;96796.41;4978512;28;20129;-71
2021/01/22 00:07:38;;;;;;;0.40;0.20;;;;;;;10.44;65.40;96794.97;4987742;28;20081;-71
2021/01/22 00:10:04;;;;;;;2.00;0.65;;;;;;;10.39;65.23;96782.22;4983327;28;20499;-71
2021/01/22 00:12:29;;;;;;;0.32;0.20;;;;;;;10.34;65.81;96765.13;4975479;28;20053;-71
2021/01/22 00:14:55;;;;;;;0.95;0.40;;;;;;;10.30;65.92;96779.13;4974895;28;20394;-71
2021/01/22 00:17:20;;;;;;;2.47;0.47;;;;;;;10.23;66.30;96783.88;4995446;28;20085;-71
2021/01/22 00:19:45;;;;;;;1.10;0.32;;;;;;;10.27;66.47;96784.19;5013895;28;20041;-72
2021/01/22 00:22:10;;;;;;;0.63;0.40;;;;;;;10.16;66.18;96783.22;4992010;28;20109;-71
2021/01/22 00:24:36;;;;;;;2.30;0.47;;;;;;;10.20;66.27;96770.88;4974974;28;20416;-71
2021/01/22 00:27:01;;;;;;;0.95;0.30;;;;;;;10.20;65.80;96762.75;4985778;28;20036;-71
2021/01/22 00:29:26;;;;;;;1.67;0.55;;;;;;;10.21;65.78;96752.75;4981625;28;20033;-71
2021/01/22 00:31:51;;;;;;;0.40;0.40;;;;;;;10.15;66.24;96753.78;5002437;28;20026;-71
2021/01/22 00:34:17;;;;;;;0.65;0.35;;;;;;;10.05;66.74;96749.84;4975381;28;20171;-70
2021/01/22 00:36:42;;;;;;;0.30;0.20;;;;;;;9.98;66.23;96733.03;4978873;28;20027;-70
2021/01/22 00:39:08;;;;;;;0.43;0.20;;;;;;;10.01;66.53;96756.03;4993550;28;20025;-70
2021/01/22 00:41:33;;;;;;;0.50;0.35;;;;;;;9.87;67.05;96761.78;4977920;28;20034;-70
2021/01/22 00:43:59;;;;;;;0.82;0.30;;;;;;;9.77;67.41;96740.06;4988029;28;20028;-70
2021/01/22 00:46:24;;;;;;;0.40;0.30;;;;;;;9.78;67.65;96749.78;4978626;28;20038;-70
2021/01/22 00:48:49;;;;;;;0.57;0.40;;;;;;;9.82;67.56;96733.88;4983938;28;20425;-69
2021/01/22 00:51:14;;;;;;;0.80;0.60;;;;;;;9.80;67.61;96736.84;4988482;28;20551;-69
2021/01/22 00:53:40;;;;;;;1.08;0.40;;;;;;;9.56;68.08;96697.59;4976397;28;20054;-70
2021/01/22 00:56:06;;;;;;;1.05;0.40;;;;;;;9.50;68.50;96723.72;4988696;28;20037;-70
2021/01/22 00:58:31;;;;;;;1.15;0.40;;;;;;;9.57;68.43;96716.28;4987204;28;20089;-70
2021/01/22 01:00:56;;;;;;;1.15;0.35;;;;;;;9.50;68.70;96731.00;4989271;28;20037;-69
2021/01/22 01:03:21;;;;;;;0.40;0.25;;;;;;;9.28;69.23;96707.47;4987939;28;20050;-70
2021/01/22 01:05:47;;;;;;;1.90;0.40;;;;;;;9.21;69.60;96709.50;4978896;28;20026;-70
2021/01/22 01:08:13;;;;;;;4.50;0.60;;;;;;;9.15;69.93;96705.13;4978898;28;20026;-70
2021/01/22 01:10:38;;;;;;;1.23;0.50;;;;;;;9.06;69.96;96685.00;4978606;28;20042;-69
2021/01/22 01:13:03;;;;;;;0.77;0.40;;;;;;;9.14;70.04;96689.97;4988189;28;20080;-69
2021/01/22 01:15:29;;;;;;;0.80;0.50;;;;;;;9.16;69.47;96699.47;4982884;28;20398;-70
2021/01/22 01:17:54;;;;;;;0.40;0.30;;;;;;;9.17;69.63;96697.59;4996550;28;20052;-69
2021/01/22 01:20:19;;;;;;;1.42;0.30;;;;;;;9.13;69.61;96699.94;4990011;28;20045;-70
2021/01/22 01:22:44;;;;;;;0.65;0.30;;;;;;;9.09;69.55;96698.81;4978460;28;20023;-70
2021/01/22 01:25:10;;;;;;;1.45;0.20;;;;;;;9.27;69.17;96710.41;4988879;28;20101;-70
2021/01/22 01:27:36;;;;;;;0.40;0.30;;;;;;;9.27;69.11;96724.72;4988208;28;20034;-70
2021/01/22 01:30:02;;;;;;;0.70;0.30;;;;;;;9.14;69.60;96715.09;4988018;28;20042;-70
2021/01/22 01:32:27;;;;;;;2.20;0.32;;;;;;;9.13;69.56;96713.44;4974204;28;20034;-70
2021/01/22 01:34:53;;;;;;;0.38;0.28;;;;;;;9.03;69.75;96713.28;4975674;28;20034;-70
2021/01/22 01:37:18;;;;;;;0.40;0.30;;;;;;;8.96;70.13;96713.44;4980065;28;20035;-70
2021/01/22 01:39:43;;;;;;;0.38;0.30;;;;;;;9.00;70.09;96714.56;4980915;28;20457;-70
2021/01/22 01:42:09;;;;;;;1.50;0.52;;;;;;;8.96;70.14;96710.75;4975870;28;20089;-69
2021/01/22 01:44:35;;;;;;;0.45;0.25;;;;;;;9.14;69.48;96708.84;4978694;28;20030;-70
2021/01/22 01:47:00;;;;;;;0.98;0.47;;;;;;;9.14;69.64;96708.84;4976172;28;20027;-70
2021/01/22 01:49:25;;;;;;;0.45;0.30;;;;;;;9.16;69.32;96701.34;4973318;28;20040;-70
2021/01/22 01:51:51;;;;;;;0.75;0.25;;;;;;;9.29;68.57;96702.88;4975463;28;20053;-70
2021/01/22 01:54:18;;;;;;;1.95;0.30;;;;;;;9.25;68.80;96712.53;4973749;28;20030;-70
2021/01/22 01:56:45;;;;;;;0.80;0.50;;;;;;;9.20;68.79;96707.91;4982831;28;20041;-70
2021/01/22 01:59:12;;;;;;;0.85;0.40;;;;;;;9.11;68.84;96707.47;4994840;28;20539;-70
2021/01/22 02:01:39;;;;;;;1.38;0.40;;;;;;;9.08;68.92;96715.25;4989306;28;20112;-69
2021/01/22 02:04:04;;;;;;;0.80;0.40;;;;;;;9.02;69.52;96698.16;5001166;28;20034;-70
2021/01/22 02:06:30;;;;;;;0.30;0.20;;;;;;;8.96;69.63;96709.91;4981663;28;20034;-69
2021/01/22 02:08:56;;;;;;;0.77;0.43;;;;;;;8.89;69.70;96702.00;4982643;28;20038;-70
2021/01/22 02:11:22;;;;;;;0.55;0.30;;;;;;;8.80;69.73;96692.66;4981674;28;20037;-70
2021/01/22 02:13:49;;;;;;;0.50;0.32;;;;;;;8.73;70.31;96683.94;4990349;28;20089;-69
2021/01/22 02:16:15;;;;;;;0.63;0.30;;;;;;;8.58;70.16;96670.19;4982134;28;20034;-70
2021/01/22 02:18:43;;;;;;;0.68;0.30;;;;;;;8.75;69.84;96682.63;4973189;28;20022;-70
2021/01/22 02:21:23;;;;;;;1.50;0.47;;;;;;;8.73;70.03;96687.44;4980631;28;20026;-70
2021/01/22 02:23:51;;;;;;;1.05;0.40;;;;;;;8.72;69.97;96685.81;4974743;28;20031;-70
2021/01/22 02:26:25;;;;;;;1.35;0.30;;;;;;;8.74;70.01;96683.66;4983243;28;20038;-70
2021/01/22 02:28:54;;;;;;;0.22;0.22;;;;;;;8.71;70.44;96686.03;4989499;28;20034;-70
2021/01/22 02:31:20;;;;;;;0.60;0.30;;;;;;;8.62;70.33;96671.31;4975597;28;20034;-70
2021/01/22 02:33:48;;;;;;;0.40;0.25;;;;;;;8.64;70.16;96671.91;4973666;28;20541;-70
2021/01/22 02:36:14;;;;;;;0.90;0.40;;;;;;;8.73;70.16;96678.53;4977767;28;20063;-70
2021/01/22 02:38:42;;;;;;;2.45;0.30;;;;;;;8.75;69.81;96684.47;4974576;28;20031;-70
2021/01/22 02:41:09;;;;;;;0.50;0.28;;;;;;;8.59;70.05;96672.63;4981802;28;20910;-70
2021/01/22 02:43:36;;;;;;;1.35;0.30;;;;;;;8.70;69.82;96690.63;4988723;28;20042;-70
2021/01/22 02:46:02;;;;;;;1.20;0.20;;;;;;;8.69;69.93;96682.78;4973218;28;20034;-70
2021/01/22 02:48:28;;;;;;;1.77;0.30;;;;;;;8.61;69.95;96658.91;4975773;28;20360;-70
2021/01/22 02:50:53;;;;;;;2.95;0.32;;;;;;;8.64;69.74;96675.41;4973183;28;20039;-70
2021/01/22 02:53:18;;;;;;;1.08;0.40;;;;;;;8.74;69.37;96682.84;4978973;28;20076;-69
2021/01/22 02:55:44;;;;;;;2.88;0.50;;;;;;;8.81;69.07;96683.53;5004989;28;20037;-70
2021/01/22 02:58:20;;;;;;;2.63;0.40;;;;;;;8.94;68.42;96685.09;4973875;28;20027;-72
2021/01/22 03:00:48;;;;;;;0.82;0.55;;;;;;;8.98;68.40;96678.94;4988836;28;20088;-70
2021/01/22 03:03:40;;;;;;;3.97;1.07;;;;;;;8.95;68.53;96687.53;4976595;28;20043;-70
2021/01/22 03:06:09;;;;;;;2.20;0.50;;;;;;;8.88;68.73;96670.72;4986922;28;20043;-69
2021/01/22 03:08:35;;;;;;;1.50;0.30;;;;;;;8.96;68.31;96686.47;4984055;28;20049;-72
2021/01/22 03:11:05;;;;;;;2.00;0.52;;;;;;;8.92;68.02;96657.53;4980247;28;20031;-72
2021/01/22 03:13:31;;;;;;;3.33;0.60;;;;;;;8.94;68.28;96679.69;4999778;28;20034;-70
2021/01/22 03:15:58;;;;;;;3.20;0.55;;;;;;;8.93;68.21;96668.09;4988538;28;20031;-72
2021/01/22 03:18:23;;;;;;;2.00;0.50;;;;;;;8.87;68.42;96671.75;4976515;28;20081;-69
2021/01/22 03:20:49;;;;;;;4.32;0.57;;;;;;;8.77;68.50;96655.41;4994237;28;20027;-71
2021/01/22 03:23:17;;;;;;;4.78;0.60;;;;;;;8.75;68.79;96665.59;4971876;28;20491;-71
2021/01/22 03:25:42;;;;;;;3.28;0.70;;;;;;;8.70;68.94;96676.34;4999362;28;20058;-71
2021/01/22 03:28:09;;;;;;;2.33;0.47;;;;;;;8.66;68.77;96667.09;4980951;28;20065;-71
2021/01/22 03:30:34;;;;;;;1.65;0.57;;;;;;;8.62;68.86;96661.38;4973315;28;20396;-71
2021/01/22 03:33:00;;;;;;;1.20;0.30;;;;;;;8.63;68.90;96670.28;4987100;28;20033;-71
2021/01/22 03:35:27;;;;;;;5.05;0.57;;;;;;;8.52;69.06;96672.78;4977794;28;20027;-71
2021/01/22 03:37:53;;;;;;;2.00;0.50;;;;;;;8.50;69.11;96679.47;4979372;28;20034;-71
2021/01/22 03:40:19;;;;;;;1.95;0.60;;;;;;;8.39;68.85;96654.22;4976230;28;20067;-71
2021/01/22 03:42:45;;;;;;;3.08;0.75;;;;;;;8.43;69.32;96662.63;4981756;28;20442;-71
2021/01/22 03:45:11;;;;;;;1.25;0.30;;;;;;;8.44;68.94;96665.09;4975836;28;20539;-71
2021/01/22 03:47:36;;;;;;;2.85;0.70;;;;;;;8.51;68.80;96673.03;4978871;28;20078;-71
2021/01/22 03:50:03;;;;;;;3.08;0.50;;;;;;;8.59;68.41;96677.19;4982573;28;20035;-71
2021/01/22 03:52:28;;;;;;;2.72;0.90;;;;;;;8.49;68.65;96677.84;4994482;28;20061;-71
2021/01/22 03:54:54;;;;;;;5.57;0.60;;;;;;;8.47;68.52;96675.41;4976481;28;20058;-71
2021/01/22 03:57:19;;;;;;;1.98;0.57;;;;;;;8.42;68.78;96678.00;4976354;28;20397;-71
2021/01/22 03:59:44;;;;;;;4.10;0.57;;;;;;;8.33;69.10;96674.00;4975556;28;20054;-71
2021/01/22 04:02:09;;;;;;;4.32;0.73;;;;;;;8.41;69.17;96681.75;5004784;28;20018;-71
2021/01/22 04:04:35;;;;;;;5.25;0.80;;;;;;;8.52;68.52;96671.97;4999902;28;20034;-71
2021/01/22 04:07:01;;;;;;;6.38;0.90;;;;;;;8.52;68.52;96671.97;4988156;28;20085;-71
2021/01/22 04:09:26;;;;;;;3.80;0.60;;;;;;;8.63;68.04;96672.97;4993829;28;20440;-71
2021/01/22 04:11:52;;;;;;;1.17;0.38;;;;;;;8.73;67.77;96656.97;4983421;28;20114;-71
2021/01/22 04:14:17;;;;;;;4.63;0.80;;;;;;;8.73;67.62;96662.38;4983684;28;20034;-71
2021/01/22 04:16:42;;;;;;;2.80;0.60;;;;;;;8.75;67.46;96658.38;4992856;28;20093;-71
2021/01/22 04:19:07;;;;;;;4.53;0.40;;;;;;;8.71;67.84;96659.91;4989253;28;20018;-71
2021/01/22 04:21:33;;;;;;;5.45;0.77;;;;;;;8.73;67.79;96656.97;4981588;28;20022;-71
2021/01/22 04:23:58;;;;;;;2.30;0.90;;;;;;;8.74;67.71;96658.59;4985419;28;20033;-71
2021/01/22 04:26:23;;;;;;;5.80;1.35;;;;;;;8.64;67.95;96655.72;4993031;28;20069;-71
2021/01/22 04:28:49;;;;;;;2.17;0.45;;;;;;;8.58;68.30;96657.53;4984477;28;20081;-71
2021/01/22 04:31:14;;;;;;;4.15;0.60;;;;;;;8.51;68.24;96664.94;4989114;28;20034;-71
2021/01/22 04:33:39;;;;;;;3.90;0.90;;;;;;;8.40;68.89;96641.56;4976244;28;20034;-71
2021/01/22 04:36:06;;;;;;;3.03;0.77;;;;;;;8.51;68.59;96649.59;4990141;28;20030;-71
2021/01/22 04:38:31;;;;;;;5.22;0.95;;;;;;;8.41;69.01;96651.28;4985127;28;20014;-71
2021/01/22 04:40:57;;;;;;;2.92;0.68;;;;;;;8.35;69.23;96644.97;4979242;28;20416;-71
2021/01/22 04:43:23;;;;;;;4.05;0.70;;;;;;;8.25;69.30;96645.59;4990076;28;20033;-71
2021/01/22 04:45:48;;;;;;;2.25;0.60;;;;;;;8.18;69.45;96638.72;4976183;28;20546;-71
2021/01/22 04:48:14;;;;;;;1.58;0.40;;;;;;;8.19;69.21;96643.84;4988701;28;20089;-71
2021/01/22 04:50:40;;;;;;;3.83;0.55;;;;;;;8.14;69.50;96630.28;4978722;28;20030;-71
2021/01/22 04:53:08;;;;;;;5.70;0.70;;;;;;;8.04;69.46;96622.03;4975837;28;20029;-71
2021/01/22 04:55:36;;;;;;;2.88;0.68;;;;;;;8.09;69.11;96620.25;4975026;28;20489;-71
2021/01/22 04:58:05;;;;;;;1.88;0.60;;;;;;;8.02;69.40;96599.94;4976960;28;20030;-70
2021/01/22 05:00:31;;;;;;;2.97;0.60;;;;;;;8.04;69.24;96606.72;4979727;28;20026;-71
2021/01/22 05:02:56;;;;;;;4.10;1.08;;;;;;;8.04;69.25;96601.31;4975316;28;20030;-71
2021/01/22 05:05:21;;;;;;;4.18;0.88;;;;;;;7.93;69.31;96586.03;4976447;28;20039;-72
2021/01/22 05:07:47;;;;;;;1.95;0.80;;;;;;;7.87;69.31;96587.00;4974859;28;20042;-71
2021/01/22 05:10:13;;;;;;;4.43;0.75;;;;;;;7.87;68.98;96589.69;4977934;28;20053;-71
2021/01/22 05:12:40;;;;;;;3.97;0.82;;;;;;;7.89;69.30;96598.34;4979839;28;20101;-70
2021/01/22 05:15:24;;;;;;;6.75;0.80;;;;;;;7.83;69.22;96594.75;4985397;28;20038;-71
2021/01/22 05:17:55;;;;;;;2.40;0.60;;;;;;;7.75;69.56;96591.59;5005194;28;20031;-71
2021/01/22 05:20:28;;;;;;;3.70;1.00;;;;;;;7.69;69.54;96588.81;4974661;28;20027;-71
2021/01/22 05:22:53;;;;;;;1.42;0.80;;;;;;;7.68;69.45;96581.00;4976436;28;20034;-71
2021/01/22 05:25:19;;;;;;;2.22;0.85;;;;;;;7.59;69.68;96580.53;4978136;28;20037;-71
2021/01/22 05:27:52;;;;;;;1.65;0.85;;;;;;;7.64;69.75;96586.00;4974195;28;20034;-71
2021/01/22 05:30:19;;;;;;;2.13;0.55;;;;;;;7.71;69.24;96582.38;4984957;28;20057;-72
2021/01/22 05:32:45;;;;;;;2.05;0.65;;;;;;;7.65;69.43;96565.28;4985635;28;20515;-76
2021/01/22 05:35:11;;;;;;;7.03;0.77;;;;;;;7.81;69.21;96585.28;5005106;28;20010;-75
2021/01/22 05:37:50;;;;;;;3.03;0.73;;;;;;;7.82;68.74;96578.81;4993638;28;20030;-74
2021/01/22 05:40:17;;;;;;;3.00;1.15;;;;;;;7.80;69.03;96567.47;4991153;28;20500;-74
2021/01/22 05:42:52;;;;;;;2.83;0.70;;;;;;;7.88;68.98;96567.88;4977941;28;20485;-73
2021/01/22 05:45:36;;;;;;;4.25;0.77;;;;;;;7.91;68.87;96563.91;4990637;28;20395;-76
2021/01/22 05:48:03;;;;;;;2.33;0.60;;;;;;;7.91;68.69;96561.19;4991492;28;20165;-75
2021/01/22 05:50:49;;;;;;;1.48;0.40;;;;;;;7.94;68.98;96566.13;4990726;28;20113;-75
2021/01/22 05:53:16;;;;;;;3.25;0.70;;;;;;;8.01;68.97;96572.16;5003543;28;20146;-75
2021/01/22 05:55:41;;;;;;;1.90;0.80;;;;;;;7.93;69.03;96545.63;4990268;28;20026;-73
2021/01/22 05:58:07;;;;;;;0.75;0.30;;;;;;;8.13;68.64;96572.94;4986319;28;20038;-73
2021/01/22 06:00:32;;;;;;;1.27;0.50;;;;;;;8.13;68.66;96562.16;4972209;28;20523;-73
2021/01/22 06:02:57;;;;;;;2.85;0.55;;;;;;;7.97;69.25;96546.78;4990755;28;20392;-73
2021/01/22 06:05:23;;;;;;;0.70;0.40;;;;;;;8.04;69.12;96563.63;4991247;28;20022;-72
2021/01/22 06:08:04;;;;;;;1.90;0.30;;;;;;;7.97;69.28;96554.06;4990156;28;20116;-72
2021/01/22 06:10:29;;;;;;;1.85;0.50;;;;;;;7.98;69.67;96559.19;4974174;28;20035;-74
2021/01/22 06:12:54;;;;;;;2.58;0.40;;;;;;;7.88;69.85;96554.44;4988118;28;20222;-75
2021/01/22 06:15:21;;;;;;;0.82;0.20;;;;;;;8.08;69.56;96567.44;4992642;28;20026;-76
2021/01/22 06:17:49;;;;;;;1.30;0.50;;;;;;;8.15;69.40;96553.84;4991216;28;20411;-72
2021/01/22 06:20:16;;;;;;;2.15;0.50;;;;;;;8.19;69.35;96567.63;4991129;28;20026;-72
2021/01/22 06:22:51;;;;;;;0.88;0.30;;;;;;;8.15;69.31;96555.69;4987351;28;20084;-73
2021/01/22 06:25:17;;;;;;;2.30;0.47;;;;;;;8.13;69.32;96550.56;4990007;28;20113;-72
2021/01/22 06:27:43;;;;;;;0.80;0.38;;;;;;;8.23;69.26;96566.09;4987430;28;20049;-74
2021/01/22 06:30:09;;;;;;;4.25;1.25;;;;;;;8.11;69.41;96531.94;4992385;28;20105;-77
2021/01/22 06:32:37;;;;;;;0.98;0.50;;;;;;;7.72;69.09;96473.66;4991907;28;20492;-78
2021/01/22 06:35:02;;;;;;;2.60;0.50;;;;;;;8.27;69.46;96559.16;5003745;28;20035;-71
2021/01/22 06:37:28;;;;;;;0.77;0.50;;;;;;;8.26;68.77;96552.13;4992760;28;20105;-69
2021/01/22 06:39:54;;;;;;;2.53;0.50;;;;;;;8.31;68.66;96552.22;4990369;28;20054;-70
2021/01/22 06:42:20;;;;;;;2.33;0.70;;;;;;;8.37;68.93;96556.63;4990409;28;20022;-72
2021/01/22 06:44:46;;;;;;;2.67;0.70;;;;;;;8.28;69.21;96555.41;4991314;28;20030;-72
2021/01/22 06:47:12;;;;;;;0.65;0.32;;;;;;;8.33;69.30;96566.25;4977514;28;20023;-71
2021/01/22 06:49:39;;;;;;;1.45;0.30;;;;;;;8.35;68.98;96564.94;4978723;28;20031;-71
2021/01/22 06:52:14;;;;;;;0.73;0.40;;;;;;;8.34;69.03;96562.50;4987047;28;20476;-70
2021/01/22 06:54:57;;;;;;;3.35;0.30;;;;;;;8.31;69.14;96563.81;5001014;28;20034;-70
2021/01/22 06:57:24;;;;;;;2.63;0.47;;;;;;;8.31;68.99;96550.34;4984501;28;20117;-70
2021/01/22 06:59:49;;;;;;;4.03;0.68;;;;;;;8.29;68.95;96559.72;4973050;28;20411;-69
2021/01/22 07:02:36;;;;;;;1.58;0.50;;;;;;;8.30;69.36;96547.88;4973318;28;20114;-78
2021/01/22 07:05:02;;;;;;;1.45;0.57;;;;;;;8.35;68.83;96559.56;4986695;28;20030;-73
2021/01/22 07:07:47;;;;;;;4.20;1.30;;;;;;;8.23;69.50;96556.13;4977290;28;20428;-71
2021/01/22 07:10:12;;;;;;;2.45;0.93;;;;;;;8.08;69.49;96550.47;4980045;28;20137;-72
2021/01/22 07:12:40;;;;;;;2.15;0.68;;;;;;;8.14;69.72;96568.34;4978697;28;20476;-72
2021/01/22 07:15:21;;;;;;;2.20;0.82;;;;;;;8.15;69.71;96569.16;4980079;28;20031;-70
2021/01/22 07:17:50;;;;;;;3.03;1.30;;;;;;;8.12;69.71;96559.69;4985800;28;20030;-69
2021/01/22 07:20:15;;;;;;;4.45;1.13;;;;;;;8.19;69.58;96554.16;4998582;28;20375;-70
2021/01/22 07:23:01;;;;;;;3.25;1.08;;;;;;;8.29;69.43;96563.22;4992178;28;20038;-70
2021/01/22 07:25:37;;;;;;;2.72;0.73;;;;;;;8.25;69.17;96558.56;4993508;28;20064;-70
2021/01/22 07:28:12;;;;;;;4.28;0.93;;;;;;;8.32;69.09;96564.63;4991186;28;20098;-69
2021/01/22 07:30:41;;;;;;;2.35;0.85;;;;;;;8.36;68.88;96573.88;5011944;28;20033;-69
2021/01/22 07:33:25;;;;;;;;;;;;;;;8.31;69.08;96582.66;4989600;28;20034;-70
2021/01/22 07:35:50;;;;;;;3.65;0.95;;;;;;;8.33;68.42;96567.09;5006062;28;19937;-72
2021/01/22 07:38:22;;;;;;;3.78;0.70;;;;;;;8.46;68.49;96579.47;5005350;28;20010;-77
2021/01/22 07:40:48;;;;;;;2.58;0.60;;;;;;;8.53;68.09;96561.22;5020739;28;20011;-78
2021/01/22 07:43:13;;;;;;;3.58;0.80;;;;;;;9.07;66.04;96549.09;5017796;28;20088;-73
2021/01/22 07:45:38;;;;;;;5.43;0.77;;;;;;;9.46;65.49;96557.09;5012785;28;20080;-70
2021/01/22 07:48:04;;;;;;;1.83;0.43;;;;;;;10.15;63.08;96548.41;5023874;28;20101;-68
2021/01/22 07:50:31;;;;;;;1.60;0.40;;;;;;;10.13;63.08;96545.97;5000651;28;20074;-72
2021/01/22 07:52:57;;;;;;;2.65;0.40;;;;;;;9.76;64.44;96541.28;4994808;28;20054;-72
2021/01/22 07:55:23;;;;;;;0.73;0.30;;;;;;;9.27;65.24;96560.13;4995291;28;20042;-75
2021/01/22 07:58:05;;;;;;;5.65;0.52;;;;;;;9.07;66.12;96576.06;4980203;28;20109;-70
2021/01/22 08:00:40;;;;;;;4.18;0.63;;;;;;;8.92;66.73;96574.75;4977890;28;20473;-70
2021/01/22 08:03:08;;;;;;;1.35;0.45;;;;;;;8.87;66.99;96588.16;4994895;28;20030;-72
2021/01/22 08:05:35;;;;;;;5.95;0.70;;;;;;;8.95;66.52;96587.75;4992536;28;20034;-70
2021/01/22 08:08:01;;;;;;;6.25;0.55;;;;;;;8.99;66.73;96572.72;4994162;28;20534;-73
2021/01/22 08:10:28;;;;;;;1.52;0.40;;;;;;;8.96;66.63;96570.50;4994076;28;20030;-73
2021/01/22 08:12:56;;;;;;;1.35;0.38;;;;;;;9.13;66.31;96569.66;4993620;28;20089;-68
2021/01/22 08:15:22;;;;;;;0.68;0.50;;;;;;;9.28;65.78;96575.25;4987323;28;20030;-68
2021/01/22 08:17:49;;;;;;;2.55;0.70;;;;;;;9.46;65.02;96576.00;4986954;28;20100;-74
2021/01/22 08:20:16;;;;;;;2.95;0.80;;;;;;;9.49;65.02;96578.22;4992221;28;20023;-74
2021/01/22 08:22:42;;;;;;;2.97;0.60;;;;;;;9.48;64.86;96550.41;5006023;28;20392;-74
2021/01/22 08:25:09;;;;;;;3.03;0.80;;;;;;;9.54;64.81;96568.31;4994258;28;20049;-75
2021/01/22 08:27:35;;;;;;;3.40;1.00;;;;;;;9.69;64.58;96578.44;4991729;28;20475;-72
2021/01/22 08:30:03;;;;;;;1.88;0.70;;;;;;;9.77;63.87;96564.53;4990281;28;20054;-73
2021/01/22 08:32:29;;;;;;;2.85;0.90;;;;;;;9.92;63.87;96571.16;4986162;28;20019;-72
2021/01/22 08:34:56;;;;;;;4.13;0.60;;;;;;;9.91;63.72;96573.03;4989211;28;20030;-73
2021/01/22 08:37:22;;;;;;;1.13;0.50;;;;;;;9.81;63.92;96589.94;4991481;28;20033;-74
2021/01/22 08:39:58;;;;;;;0.98;0.68;;;;;;;9.77;63.99;96569.09;4993247;28;20033;-72
2021/01/22 08:42:28;;;;;;;3.42;0.95;;;;;;;9.74;63.99;96586.59;4993215;28;20034;-72
2021/01/22 08:44:58;;;;;;;5.13;0.82;;;;;;;9.78;63.89;96562.63;4978986;28;20034;-72
2021/01/22 08:47:25;;;;;;;3.55;0.68;;;;;;;9.74;63.81;96573.09;4984278;28;20027;-72
2021/01/22 08:50:02;;;;;;;3.42;0.43;;;;;;;9.61;64.10;96557.28;4993534;28;20030;-73
2021/01/22 08:52:29;;;;;;;2.30;0.43;;;;;;;9.82;63.31;96572.69;4995780;28;20018;-73
2021/01/22 08:54:59;;;;;;;2.85;0.60;;;;;;;9.98;62.92;96564.72;4993255;28;20036;-72
2021/01/22 08:57:27;;;;;;;6.30;1.13;;;;;;;10.04;63.20;96555.63;4992361;28;20365;-73
2021/01/22 08:59:55;;;;;;;2.05;0.52;;;;;;;10.18;62.26;96554.13;4975127;28;20084;-74
2021/01/22 09:02:41;;;;;;;2.42;0.50;;;;;;;10.33;62.23;96561.59;4975993;28;20188;-72
2021/01/22 09:05:16;;;;;;;3.78;0.95;;;;;;;10.56;62.03;96565.84;4981119;28;20027;-69
2021/01/22 09:07:42;;;;;;;2.03;0.68;;;;;;;10.71;61.30;96563.22;4984666;28;20032;-70
2021/01/22 09:10:28;;;;;;;2.58;0.60;;;;;;;10.53;62.00;96542.00;4994823;28;20381;-72
2021/01/22 09:12:54;;;;;;;3.55;0.70;;;;;;;10.48;61.53;96558.22;4994620;28;20396;-75
2021/01/22 09:15:20;;;;;;;4.32;0.70;;;;;;;10.53;62.12;96563.63;4994406;28;20488;-77
2021/01/22 09:17:50;;;;;;;3.00;0.88;;;;;;;10.47;62.40;96564.69;4989511;28;20076;-76
2021/01/22 09:20:26;;;;;;;5.13;0.82;;;;;;;10.34;62.79;96557.00;4989852;28;20062;-76
2021/01/22 09:23:02;;;;;;;1.77;0.80;;;;;;;10.55;61.78;96572.31;4999012;28;20022;-76
2021/01/22 09:25:28;;;;;;;2.28;0.73;;;;;;;10.48;61.72;96547.41;4990651;28;20344;-76
2021/01/22 09:27:54;;;;;;;2.80;0.82;;;;;;;10.80;61.28;96571.69;4994764;28;20026;-77
2021/01/22 09:30:21;;;;;;;4.80;0.80;;;;;;;11.01;61.01;96583.47;4992442;28;20468;-77
2021/01/22 09:32:50;;;;;;;5.45;1.02;;;;;;;11.65;59.15;96581.66;4993527;28;20061;-73
2021/01/22 09:35:16;;;;;;;3.75;1.00;;;;;;;13.03;55.71;96569.09;4985799;28;20022;-77
2021/01/22 09:37:42;;;;;;;2.95;1.13;;;;;;;14.34;53.00;96573.50;4994737;28;20018;-78
2021/01/22 09:40:09;;;;;;;2.72;0.95;;;;;;;15.09;51.11;96584.09;4997860;28;20029;-78
2021/01/22 09:42:35;;;;;;;4.55;0.45;;;;;;;15.25;50.94;96586.69;4991176;28;20094;-76
2021/01/22 09:45:00;;;;;;;2.08;0.50;;;;;;;14.37;52.52;96596.59;4990760;28;20121;-74
2021/01/22 09:47:25;;;;;;;2.13;0.55;;;;;;;13.46;54.12;96583.16;4992344;28;20084;-75
2021/01/22 09:49:50;;;;;;;1.30;0.40;;;;;;;12.41;56.54;96595.41;4993495;28;20030;-70
2021/01/22 09:52:16;;;;;;;3.65;0.60;;;;;;;12.30;56.78;96591.06;4988840;28;20031;-69
2021/01/22 09:54:42;;;;;;;3.70;0.60;;;;;;;11.97;58.58;96600.47;4973766;28;20045;-65
2021/01/22 09:57:09;;;;;;;2.67;0.50;;;;;;;11.73;58.96;96591.97;4984913;28;20030;-69
2021/01/22 09:59:34;;;;;;;2.00;0.60;;;;;;;11.62;59.11;96588.41;4974922;28;20019;-69
2021/01/22 10:02:00;;;;;;;4.25;0.82;;;;;;;11.48;59.93;96561.00;4984048;28;20031;-67
2021/01/22 10:04:25;;;;;;;3.13;0.40;;;;;;;11.42;59.96;96575.56;4989770;28;20076;-71
2021/01/22 10:06:50;;;;;;;3.33;0.70;;;;;;;11.41;59.90;96579.38;4993374;28;20026;-68
2021/01/22 10:09:16;;;;;;;2.72;0.60;;;;;;;11.37;60.19;96556.59;4997637;28;20026;-68
2021/01/22 10:11:42;;;;;;;4.05;0.52;;;;;;;11.44;60.14;96570.72;4992324;28;20196;-68
2021/01/22 10:14:07;;;;;;;3.65;0.55;;;;;;;11.24;60.31;96555.19;4990076;28;20655;-68
2021/01/22 10:16:34;;;;;;;2.05;0.40;;;;;;;11.29;60.90;96565.22;4974954;28;20026;-71
2021/01/22 10:18:59;;;;;;;3.33;0.60;;;;;;;11.14;60.65;96563.25;4991153;28;20384;-67
2021/01/22 10:21:25;;;;;;;1.75;0.50;;;;;;;11.42;61.20;96567.44;4991490;28;20026;-69
2021/01/22 10:23:52;;;;;;;7.10;0.60;;;;;;;11.29;60.61;96546.28;4992710;28;20029;-68
2021/01/22 10:26:18;;;;;;;2.10;0.55;;;;;;;11.61;59.97;96555.09;4993041;28;20455;-69
2021/01/22 10:28:43;;;;;;;4.63;0.68;;;;;;;11.59;60.22;96551.03;4992494;28;20034;-71
2021/01/22 10:31:10;;;;;;;1.60;0.40;;;;;;;11.50;60.37;96548.03;4993654;28;20077;-70
2021/01/22 10:33:35;;;;;;;3.58;0.80;;;;;;;11.54;60.50;96538.25;4977571;28;20480;-70
2021/01/22 10:36:01;;;;;;;1.70;0.55;;;;;;;11.65;59.88;96544.53;4986777;28;20030;-70
2021/01/22 10:38:27;;;;;;;3.38;0.45;;;;;;;11.80;60.16;96549.19;4991302;28;20395;-70
2021/01/22 10:40:54;;;;;;;2.65;0.63;;;;;;;11.72;59.93;96552.44;4988556;28;20541;-69
2021/01/22 10:43:19;;;;;;;4.10;0.80;;;;;;;11.76;59.71;96545.38;4996416;28;20045;-70
2021/01/22 10:45:44;;;;;;;2.88;0.88;;;;;;;11.75;59.90;96520.19;4996285;28;20026;-69
2021/01/22 10:48:10;;;;;;;8.65;0.98;;;;;;;11.93;59.72;96532.47;4995934;28;20112;-69
2021/01/22 10:50:35;;;;;;;6.38;0.77;;;;;;;12.05;59.45;96521.34;4996177;28;20472;-70
2021/01/22 10:53:00;;;;;;;3.30;0.60;;;;;;;11.99;59.31;96534.09;4995939;28;20496;-69
2021/01/22 10:55:25;;;;;;;2.58;0.80;;;;;;;12.15;59.65;96523.28;4994541;28;20022;-69
2021/01/22 10:57:51;;;;;;;4.85;0.80;;;;;;;12.25;59.01;96526.00;5004660;28;20033;-69
2021/01/22 11:00:16;;;;;;;2.90;0.73;;;;;;;11.94;59.02;96528.66;5015924;28;20053;-69
2021/01/22 11:02:42;;;;;;;2.83;0.63;;;;;;;12.14;58.88;96519.75;5001253;28;20030;-69
2021/01/22 11:05:08;;;;;;;2.65;0.63;;;;;;;12.24;58.62;96525.19;4995878;28;20033;-70
2021/01/22 11:07:33;;;;;;;3.42;0.52;;;;;;;12.17;59.07;96512.97;4995841;28;20034;-69
2021/01/22 11:09:58;;;;;;;4.28;0.65;;;;;;;12.41;58.63;96529.53;4999047;28;20069;-69
2021/01/22 11:12:24;;;;;;;2.28;0.77;;;;;;;12.38;58.24;96502.97;4990853;28;20395;-69
2021/01/22 11:14:49;;;;;;;6.20;0.82;;;;;;;12.28;58.75;96511.91;4994274;28;20041;-69
2021/01/22 11:17:14;;;;;;;2.65;0.80;;;;;;;12.71;57.83;96501.59;4993817;28;20543;-69
2021/01/22 11:19:39;;;;;;;3.65;0.80;;;;;;;12.86;57.30;96507.00;4994566;28;20060;-69
2021/01/22 11:22:05;;;;;;;4.72;0.70;;;;;;;13.08;56.96;96495.00;4982131;28;20109;-70
2021/01/22 11:24:30;;;;;;;2.40;0.90;;;;;;;13.24;56.43;96483.00;4993833;28;20030;-70
2021/01/22 11:26:56;;;;;;;2.95;0.90;;;;;;;13.46;56.31;96487.28;4982827;28;20035;-70
2021/01/22 11:29:22;;;;;;;2.50;0.80;;;;;;;13.38;56.26;96489.47;4990136;28;20042;-69
2021/01/22 11:31:47;;;;;;;3.78;1.00;;;;;;;13.41;56.28;96488.09;4993094;28;20026;-70
2021/01/22 11:34:12;;;;;;;4.68;1.15;;;;;;;13.55;55.71;96499.19;4978035;28;20030;-70
2021/01/22 11:36:37;;;;;;;3.25;1.08;;;;;;;13.56;55.59;96485.31;5009879;28;20694;-71
2021/01/22 11:39:03;;;;;;;1.90;0.75;;;;;;;13.46;55.12;96479.13;5011534;28;20014;-71